This is the latest recevied weather packets stored in our database for station/object ZR6G-15. If no packets are shown the sender has not sent any weather packets the latest 10 day(s).
| Time | Temp. | Humidity | Pressure | Rain* | Wind** | Luminosity | Snow |
|---|---|---|---|---|---|---|---|
| 1777627759 | 18.89° C | 39% | 1011.7 hPa | - | - | - | - |
| 1777627155 | 17.78° C | 41% | 1012.7 hPa | - | - | - | - |
| 1777626550 | 16.67° C | 44% | 1013.3 hPa | - | - | - | - |
| 1777625945 | 16.67° C | 46% | 1013.7 hPa | - | - | - | - |
| 1777625341 | 15.56° C | 48% | 1014.1 hPa | - | - | - | - |
| 1777624736 | 15° C | 50% | 1014.3 hPa | - | - | - | - |
| 1777624131 | 15° C | 50% | 1014.1 hPa | - | - | - | - |
| 1777623527 | 15° C | 51% | 1014.3 hPa | - | - | - | - |
| 1777622922 | 15° C | 52% | 1014.5 hPa | - | - | - | - |
| 1777622318 | 13.89° C | 54% | 1014.5 hPa | - | - | - | - |
| 1777621713 | 13.89° C | 53% | 1014.5 hPa | - | - | - | - |
| 1777621108 | 13.89° C | 54% | 1014.7 hPa | - | - | - | - |
| 1777620504 | 13.89° C | 54% | 1014.6 hPa | - | - | - | - |
| 1777619899 | 13.89° C | 54% | 1014.3 hPa | - | - | - | - |
| 1777619295 | 13.89° C | 55% | 1014.1 hPa | - | - | - | - |
| 1777618690 | 13.89° C | 55% | 1014.2 hPa | - | - | - | - |
| 1777618085 | 13.89° C | 55% | 1014.4 hPa | - | - | - | - |
| 1777617481 | 12.78° C | 54% | 1014.5 hPa | - | - | - | - |
| 1777616876 | 12.78° C | 54% | 1014.6 hPa | - | - | - | - |
| 1777616272 | 12.78° C | 53% | 1014.2 hPa | - | - | - | - |
| 1777615667 | 12.78° C | 51% | 1014.2 hPa | - | - | - | - |
| 1777615063 | 12.78° C | 52% | 1014.3 hPa | - | - | - | - |
| 1777614458 | 12.78° C | 51% | 1013.9 hPa | - | - | - | - |
| 1777613853 | 12.78° C | 52% | 1014.1 hPa | - | - | - | - |
| 1777613248 | 13.89° C | 50% | 1014.3 hPa | - | - | - | - |
* Rain since midnight (hover to see other rain measurements)
** Current wind speed in m/s (hover to see current wind gust speed)